Date,TemperatureHighF,TemperatureAvgF,TemperatureLowF,DewpointHighF,DewpointAvgF,DewpointLowF,HumidityHigh,HumidityAvg,HumidityLow,PressureMaxIn,PressureMinIn,WindSpeedMaxMPH,WindSpeedAvgMPH,GustSpeedMaxMPH,PrecipitationSumIn
2013-1-1,76,65,54,67,61,51,95,88,72,30.05,29.89,16,6,20,0.22
2013-1-2,54,48,44,51,44,42,93,88,82,30.21,30.03,15,6,17,0.06
2013-1-3,49,45,42,42,35,29,94,71,47,30.36,30.17,16,5,19,0.25
2013-1-4,55,48,41,38,32,28,65,54,39,30.42,30.32,12,3,18,0.00
2013-1-5,54,51,48,43,40,36,76,66,58,30.34,30.20,8,3,13,0.00
2013-1-6,52,50,46,48,45,41,95,86,68,30.27,30.14,12,4,17,0.48
2013-1-7,55,50,44,47,44,40,88,79,69,30.29,30.16,13,3,16,0.48
2013-1-8,59,56,52,59,53,46,98,89,73,30.18,30.06,9,2,15,0.52
2013-1-9,68,64,58,68,64,58,99,97,95,30.16,30.04,13,3,17,0.37
2013-1-10,69,66,63,68,65,62,99,97,91,30.15,29.96,14,4,24,1.31
2013-1-11,76,70,65,71,68,64,98,94,82,30.08,29.98,14,4,20,0.07
2013-1-12,78,72,68,72,69,67,99,91,71,30.04,29.90,17,5,22,0.00
2013-1-13,77,67,53,72,65,51,97,93,85,30.03,29.86,19,7,26,0.47
2013-1-14,55,50,43,55,49,42,98,97,95,30.10,30.00,13,5,24,0.61
2013-1-15,56,51,47,54,50,47,98,97,92,30.04,29.92,11,3,13,0.03
2013-1-16,48,42,40,47,41,37,98,93,89,30.12,29.94,13,6,18,0.30
2013-1-17,53,46,40,39,37,33,92,71,52,30.39,30.13,14,6,23,0.00
2013-1-18,56,48,41,42,39,36,90,74,58,30.51,30.37,10,3,17,0.00
2013-1-19,64,54,43,50,45,40,94,73,52,30.37,30.23,10,2,12,0.00
2013-1-20,65,55,47,53,49,46,98,82,55,30.25,30.12,6,1,9,0.01
2013-1-21,65,57,48,50,46,42,95,70,46,30.21,30.11,8,2,12,0.00
2013-1-22,61,53,47,47,43,35,89,69,54,30.35,30.18,7,2,14,0.00
2013-1-23,71,58,47,53,49,44,94,74,42,30.38,30.27,7,2,13,0.00
2013-1-24,73,61,50,58,54,49,97,81,57,30.34,30.21,8,2,13,0.01
2013-1-25,73,63,54,60,57,52,95,82,61,30.25,30.14,14,3,19,0.00
2013-1-26,77,65,55,63,58,54,98,81,52,30.24,30.15,6,1,9,0.01
2013-1-27,73,64,57,63,60,56,97,85,67,30.26,30.18,12,2,15,0.00
2013-1-28,75,67,58,67,64,57,97,89,73,30.22,30.08,11,3,15,0.01
2013-1-29,78,72,66,71,69,65,97,89,79,30.08,29.78,17,7,27,0.00
2013-1-30,74,60,49,71,49,30,94,69,37,30.17,29.66,25,8,28,1.14
2013-1-31,60,51,42,39,32,18,79,49,21,30.33,30.16,15,4,24,0.00
2013-2-1,65,54,47,46,41,36,88,64,36,30.39,30.29,10,2,12,0.00
2013-2-2,69,60,47,54,50,44,92,72,51,30.31,30.16,9,2,13,0.00
2013-2-3,67,60,54,54,43,33,90,55,30,30.26,30.09,12,2,15,0.00
2013-2-4,64,57,51,57,51,46,97,83,53,30.09,29.92,6,1,11,0.78
2013-2-5,70,62,58,62,59,57,97,90,74,30.01,29.90,6,1,9,0.01
2013-2-6,66,60,55,61,58,54,98,92,80,30.11,29.90,12,2,19,0.62
2013-2-7,73,64,59,62,60,57,97,87,66,29.93,29.77,18,4,30,1.00
2013-2-8,69,62,56,62,58,53,97,88,72,30.13,29.93,11,3,16,0.00
2013-2-9,65,60,54,62,56,49,94,86,79,30.19,30.00,11,3,15,0.00
2013-2-10,75,70,64,70,67,61,95,91,86,30.02,29.91,17,7,27,0.01
2013-2-11,70,63,58,69,61,55,98,94,85,30.08,29.95,9,4,20,0.46
2013-2-12,75,67,59,73,65,57,98,94,88,30.00,29.72,19,3,24,0.08
2013-2-13,65,53,49,62,48,42,92,84,74,30.04,29.81,14,4,19,0.14
2013-2-14,61,51,46,44,42,36,85,73,43,30.15,30.03,9,1,11,0.00
2013-2-15,64,55,43,50,42,36,95,64,35,30.16,30.05,14,3,22,0.00
2013-2-16,54,49,43,42,30,19,78,51,27,30.28,30.13,17,6,24,0.01
2013-2-17,61,52,40,41,35,27,79,55,37,30.34,30.21,11,3,13,0.00
2013-2-18,66,58,49,60,51,40,88,78,67,30.22,29.97,17,5,21,0.00
2013-2-19,66,60,53,62,46,29,94,64,32,30.21,29.96,18,7,26,0.21
2013-2-20,57,52,46,40,35,29,59,53,46,30.24,30.00,15,4,17,0.00
2013-2-21,74,64,55,69,58,41,96,80,58,30.00,29.77,23,6,30,0.11
2013-2-22,70,65,58,69,60,53,98,86,64,29.95,29.83,8,3,15,0.24
2013-2-23,60,58,56,57,56,54,97,91,85,29.93,29.82,10,3,17,0.89
2013-2-24,62,58,51,60,55,48,98,89,82,29.95,29.71,10,3,13,1.27
2013-2-25,68,63,60,66,60,47,98,91,60,29.71,29.45,9,3,17,1.11
2013-2-26,61,54,47,48,41,36,84,62,48,29.92,29.56,16,5,24,0.01
2013-2-27,68,58,48,52,46,40,93,68,40,30.02,29.90,12,2,16,0.00
2013-2-28,59,52,48,47,36,32,68,54,44,30.12,30.00,14,6,17,0.00
2013-3-1,60,52,46,39,35,29,74,56,34,30.15,30.03,14,5,19,0.00
2013-3-2,50,44,39,35,29,26,70,56,44,30.24,30.11,18,6,22,0.00
2013-3-3,56,46,37,39,29,23,78,53,35,30.28,30.13,10,3,15,0.00
2013-3-4,68,58,43,57,50,38,89,76,58,30.13,29.93,21,6,24,0.00
2013-3-5,76,66,57,63,53,38,86,66,36,30.17,29.92,15,6,21,0.00
2013-3-6,62,54,47,42,32,27,62,44,27,30.32,30.17,12,6,20,0.00
2013-3-7,63,54,44,45,38,32,82,57,35,30.33,30.21,8,3,14,0.00
2013-3-8,71,58,47,50,46,43,93,67,40,30.28,30.16,8,2,10,0.00
2013-3-9,70,62,54,61,55,49,89,79,63,30.16,29.94,18,4,19,0.00
2013-3-10,76,69,62,67,64,59,92,83,68,29.98,29.86,19,6,28,0.00
2013-3-11,68,56,47,66,49,41,95,79,53,30.01,29.83,12,6,26,0.31
2013-3-12,65,56,48,44,40,35,77,57,37,30.19,30.00,11,4,16,0.00
2013-3-13,66,58,49,46,36,26,81,49,24,30.37,30.18,14,4,20,0.00
2013-3-14,67,56,47,46,34,28,75,46,26,30.43,30.29,8,3,15,0.00
2013-3-15,73,61,49,53,46,38,87,62,29,30.30,30.12,13,3,19,0.00
2013-3-16,76,65,53,59,55,51,94,72,44,30.14,29.94,15,4,19,0.00
2013-3-17,77,69,61,65,62,58,93,80,53,29.96,29.84,13,4,18,0.00
2013-3-18,82,72,67,69,67,63,95,86,64,29.89,29.74,12,4,17,0.00
2013-3-19,74,66,61,66,59,52,92,77,58,30.01,29.86,12,3,19,0.00
2013-3-20,69,63,57,61,44,34,90,52,29,30.15,29.95,14,5,20,0.01
2013-3-21,66,58,51,49,41,33,77,54,36,30.04,29.85,11,3,15,0.00
2013-3-22,76,67,56,68,62,49,92,84,77,29.86,29.75,9,3,19,0.01
2013-3-23,77,70,64,72,68,63,98,94,83,29.81,29.56,14,3,16,0.00
2013-3-24,72,65,52,70,50,31,95,62,27,29.97,29.57,18,8,29,0.01
2013-3-25,60,51,42,35,29,23,68,47,24,30.22,29.97,17,7,25,0.00
2013-3-26,56,49,42,30,27,23,61,43,33,30.38,30.23,15,6,22,0.00
2013-3-27,63,51,42,44,37,30,77,59,41,30.43,30.27,11,2,17,0.00
2013-3-28,68,56,44,51,46,41,92,70,41,30.34,30.23,10,2,11,0.00
2013-3-29,73,61,50,58,52,46,96,74,45,30.31,30.17,12,2,14,0.00
2013-3-30,74,66,56,62,58,53,91,75,53,30.19,30.02,14,4,18,0.00
2013-3-31,78,67,60,68,62,58,98,84,63,30.04,29.89,17,5,25,0.13
2013-4-1,76,66,59,60,58,54,97,78,47,30.07,29.91,9,2,14,0.01
2013-4-2,75,66,58,64,60,51,95,81,44,30.08,29.95,8,2,14,0.01
2013-4-3,68,62,58,65,60,56,97,93,84,29.99,29.70,13,4,27,1.83
2013-4-4,65,57,53,56,53,47,95,85,71,30.01,29.87,13,5,18,0.00
2013-4-5,66,57,50,53,49,45,87,76,58,30.14,30.00,14,5,21,0.00
2013-4-6,73,63,50,57,54,48,95,74,50,30.14,30.04,10,3,16,0.00
2013-4-7,75,69,57,63,60,55,94,74,56,30.08,29.98,14,4,14,0.00
2013-4-8,80,70,61,69,65,60,97,85,61,30.01,29.93,15,4,22,0.01
2013-4-9,81,75,71,73,71,69,93,88,74,30.00,29.89,16,6,22,0.00
2013-4-10,82,76,71,72,71,69,93,85,71,29.95,29.81,19,8,25,0.00
2013-4-11,77,68,58,73,65,53,95,88,82,29.82,29.63,19,7,31,1.18
2013-4-12,74,64,54,53,49,46,85,61,38,29.97,29.82,14,4,19,0.00
2013-4-13,77,68,58,60,54,49,85,63,41,30.02,29.83,11,3,17,0.00
2013-4-14,76,68,60,65,62,57,97,83,64,29.86,29.69,25,3,38,2.66
2013-4-15,78,70,61,74,69,60,98,94,87,29.97,29.79,6,2,15,0.03
2013-4-16,82,76,72,75,72,71,98,89,76,30.08,29.95,11,4,16,0.00
2013-4-17,83,77,72,75,72,71,96,87,75,30.06,29.94,13,4,22,0.00
2013-4-18,82,76,71,74,72,68,92,86,76,29.94,29.79,17,7,24,0.00
2013-4-19,77,56,51,74,51,42,94,83,62,30.18,29.80,16,5,22,1.22
2013-4-20,68,59,50,49,42,37,81,56,36,30.27,30.11,9,2,16,0.00
2013-4-21,73,64,55,55,52,47,82,66,47,30.19,30.10,10,2,16,0.00
2013-4-22,79,67,59,67,61,54,92,80,64,30.11,30.00,10,2,13,0.00
2013-4-23,79,72,66,70,67,64,92,83,69,30.06,29.97,10,4,15,0.00
2013-4-24,72,68,60,70,66,58,97,94,89,30.14,29.97,14,4,39,1.44
2013-4-25,74,64,57,63,58,52,96,82,60,30.31,30.14,11,4,17,0.00
2013-4-26,78,70,62,66,61,52,91,74,59,30.25,30.18,14,2,15,0.00
2013-4-27,82,74,68,70,68,64,96,82,59,30.18,30.02,9,3,13,0.00
2013-4-28,78,71,64,71,68,63,96,90,65,30.05,29.91,7,1,20,1.72
2013-4-29,82,71,63,71,66,62,97,87,60,29.96,29.86,11,1,15,0.62
2013-4-30,76,70,65,72,68,64,98,93,81,29.91,29.81,9,1,21,0.80
2013-5-1,80,72,67,72,68,65,98,89,73,29.87,29.79,10,2,17,0.07
2013-5-2,78,70,67,71,67,65,97,92,74,29.92,29.82,8,2,16,2.68
2013-5-3,69,62,52,68,59,44,97,88,74,30.01,29.85,17,5,26,0.17
2013-5-4,72,59,46,52,45,37,92,63,32,30.00,29.87,13,4,21,0.00
2013-5-5,65,62,58,56,49,42,88,64,44,30.02,29.85,15,5,24,0.00
2013-5-6,76,64,52,57,49,44,86,61,40,30.04,29.91,11,3,16,0.00
2013-5-7,82,70,58,64,59,56,93,69,44,30.04,29.96,11,2,13,0.00
2013-5-8,83,72,62,65,62,57,95,72,42,30.10,30.00,13,3,16,0.00
2013-5-9,82,74,65,69,66,64,95,78,54,30.10,30.01,12,4,15,0.00
2013-5-10,73,68,64,71,66,63,97,95,90,30.08,29.89,9,3,23,1.71
2013-5-11,76,69,64,69,66,63,98,90,77,30.05,29.94,8,2,14,0.42
2013-5-12,79,72,67,67,61,55,97,70,50,30.13,30.02,8,3,14,0.00
2013-5-13,78,69,61,56,50,44,71,52,31,30.28,30.13,7,3,14,0.00
2013-5-14,84,72,59,63,57,52,88,63,36,30.27,30.15,7,2,11,0.00
2013-5-15,82,72,63,65,62,57,93,71,43,30.18,30.02,9,3,15,0.00
2013-5-16,84,76,68,72,68,65,94,77,54,30.02,29.91,11,4,17,0.00
2013-5-17,86,79,74,73,72,71,91,80,62,30.02,29.93,12,5,17,0.00
2013-5-18,87,80,74,73,72,71,92,78,59,30.06,29.97,11,4,15,0.00
2013-5-19,85,79,74,75,74,71,93,84,69,30.00,29.94,10,4,17,0.00
2013-5-20,87,80,75,75,74,72,95,81,63,29.99,29.91,13,5,16,0.00
2013-5-21,87,80,74,74,73,71,94,79,62,29.95,29.83,16,5,16,0.00
2013-5-22,83,75,69,74,71,67,95,86,68,30.00,29.84,11,1,25,0.09
2013-5-23,88,80,70,75,72,69,97,80,61,30.04,29.93,6,1,10,0.01
2013-5-24,91,81,71,74,70,67,91,71,54,30.12,30.01,10,2,15,0.00
2013-5-25,87,79,72,69,66,63,80,65,53,30.20,30.10,8,2,13,0.00
2013-5-26,87,78,70,70,66,61,91,68,45,30.17,30.09,7,2,12,0.00
2013-5-27,86,78,70,74,70,66,96,76,60,30.11,30.02,12,3,17,0.00
2013-5-28,86,79,72,73,68,63,86,71,49,30.06,29.98,11,3,16,0.00
2013-5-29,86,80,76,75,74,70,90,82,67,29.99,29.92,11,5,22,0.08
2013-5-30,86,80,76,76,74,72,94,82,68,29.99,29.92,14,5,21,0.16
2013-5-31,88,81,77,78,76,74,93,82,68,29.99,29.93,12,4,18,0.00
2013-6-1,89,82,76,76,75,73,94,79,61,29.96,29.90,8,4,14,0.00
2013-6-2,85,78,70,77,73,67,94,84,65,29.99,29.84,11,1,28,0.23
2013-6-3,90,82,74,76,73,70,93,77,54,29.90,29.81,7,1,10,0.00
2013-6-4,90,83,76,78,75,72,91,78,62,29.91,29.84,7,2,16,0.00
2013-6-5,89,83,77,79,75,74,90,78,63,29.89,29.79,8,2,14,0.01
2013-6-6,92,80,71,75,73,68,94,79,54,29.84,29.72,10,2,25,0.80
2013-6-7,88,80,72,72,71,69,94,76,56,29.88,29.75,7,2,14,0.00
2013-6-8,89,82,75,77,73,70,92,76,57,29.96,29.86,13,3,19,0.01
2013-6-9,88,79,73,76,74,70,96,86,62,29.96,29.88,10,3,18,0.72
2013-6-10,89,82,78,79,76,72,96,82,60,30.01,29.93,9,2,14,0.15
2013-6-11,92,84,78,78,76,73,93,78,54,30.07,30.00,9,2,14,0.00
2013-6-12,94,85,77,77,75,71,92,74,50,30.08,29.99,7,2,11,0.00
2013-6-13,95,86,77,78,74,70,92,70,47,30.05,29.88,9,2,12,0.00
2013-6-14,96,87,79,80,76,71,92,73,54,29.93,29.82,12,4,17,0.00
2013-6-15,94,85,78,77,74,70,82,70,58,29.98,29.90,11,3,15,0.00
2013-6-16,92,84,80,81,77,75,90,79,60,30.02,29.95,8,2,14,0.48
2013-6-17,92,84,78,77,75,74,88,74,58,30.01,29.91,10,2,14,0.00
2013-6-18,93,85,78,75,72,67,87,67,43,30.00,29.88,11,2,15,0.00
2013-6-19,87,82,77,76,74,72,89,75,63,30.01,29.92,11,1,13,0.00
2013-6-20,91,80,72,76,73,69,94,78,60,30.11,29.99,13,1,21,1.54
2013-6-21,94,82,74,76,73,68,92,74,50,30.09,30.03,8,1,11,0.00
2013-6-22,89,83,79,77,74,71,90,75,58,30.09,29.96,9,2,16,0.00
2013-6-23,92,81,76,77,74,71,92,79,52,30.04,29.97,9,2,18,0.85
2013-6-24,92,85,78,77,74,67,90,71,46,30.11,30.02,9,3,11,0.00
2013-6-25,91,84,79,78,76,74,89,78,61,30.09,29.99,10,2,13,0.00
2013-6-26,92,84,78,79,77,75,91,79,63,30.04,29.95,8,2,16,0.02
2013-6-27,96,87,80,80,78,75,89,75,56,30.01,29.90,9,2,12,0.00
2013-6-28,96,87,80,80,77,73,91,74,48,29.93,29.77,8,2,15,0.00
2013-6-29,90,82,73,79,76,71,95,82,57,29.84,29.69,13,3,18,0.57
2013-6-30,94,85,77,74,68,59,86,60,32,29.78,29.69,11,3,17,0.00
2013-7-1,89,83,77,71,67,63,77,59,44,29.89,29.78,11,3,15,0.02
2013-7-2,89,82,77,73,70,67,82,67,50,29.97,29.87,9,2,15,0.00
2013-7-3,88,81,74,75,72,69,92,75,57,29.99,29.91,6,2,13,0.04
2013-7-4,88,81,76,76,74,73,93,81,64,29.96,29.89,8,2,12,0.04
2013-7-5,81,76,73,76,73,71,96,89,77,30.03,29.93,7,1,14,1.23
2013-7-6,84,78,75,76,75,73,97,89,75,30.00,29.93,7,2,15,0.22
2013-7-7,87,79,74,78,75,73,96,87,66,30.09,29.95,8,2,14,0.21
2013-7-8,86,78,74,79,75,72,96,89,72,30.14,30.04,5,1,10,0.70
2013-7-9,92,82,74,76,75,73,96,79,55,30.16,30.06,9,2,12,0.00
2013-7-10,92,83,78,78,76,73,92,81,57,30.09,29.96,8,2,13,0.12
2013-7-11,88,79,72,78,75,71,96,88,68,29.99,29.86,15,2,17,1.85
2013-7-12,94,82,73,77,73,69,96,78,52,29.93,29.82,9,2,12,0.01
2013-7-13,93,85,78,77,74,71,88,70,50,29.91,29.82,13,2,13,0.00
2013-7-14,89,83,77,77,73,66,88,73,57,29.99,29.88,12,3,14,0.02
2013-7-15,90,81,77,77,75,73,91,81,61,30.07,29.97,11,2,17,0.10
2013-7-16,87,81,78,77,76,74,92,83,70,30.13,30.03,11,2,14,0.00
2013-7-17,91,83,78,78,75,71,90,77,56,30.18,30.09,10,2,14,0.00
2013-7-18,92,82,77,77,74,71,90,77,55,30.12,29.98,8,2,20,0.17
2013-7-19,92,83,76,76,75,71,94,76,52,30.04,29.92,7,1,13,0.00
2013-7-20,90,82,77,77,75,72,91,79,57,29.99,29.91,10,2,14,0.06
2013-7-21,82,79,73,77,75,71,94,87,79,30.07,29.97,9,2,19,0.22
2013-7-22,91,83,78,80,77,72,92,82,62,30.05,29.98,13,3,23,0.05
2013-7-23,95,84,79,79,77,74,94,79,52,30.05,29.92,11,3,15,0.00
2013-7-24,94,85,78,78,76,72,92,76,51,29.97,29.86,11,2,15,0.00
2013-7-25,93,86,80,77,75,71,90,71,54,30.01,29.89,12,3,13,0.00
2013-7-26,94,86,79,77,73,69,86,65,46,30.04,29.94,9,3,12,0.00
2013-7-27,84,81,78,78,76,72,91,84,77,29.97,29.85,8,2,14,0.02
2013-7-28,91,83,77,76,75,71,95,76,56,29.99,29.87,11,2,17,0.00
2013-7-29,95,85,79,78,76,72,89,73,52,30.07,29.97,11,2,13,0.00
2013-7-30,94,84,80,78,76,73,90,77,55,30.12,30.05,9,2,18,0.00
2013-7-31,94,85,80,79,77,73,89,78,58,30.09,29.96,9,2,11,0.08
2013-8-1,94,86,79,80,76,71,89,74,48,30.01,29.90,9,2,13,0.06
2013-8-2,97,87,79,79,76,72,91,73,48,30.00,29.90,9,2,12,0.01
2013-8-3,92,85,79,79,77,76,91,79,64,30.05,29.96,9,2,13,0.01
2013-8-4,97,88,80,79,76,67,89,71,38,30.08,29.96,9,3,13,0.00
2013-8-5,96,87,81,78,77,74,88,74,50,30.04,29.93,7,2,13,0.00
2013-8-6,98,87,80,79,77,74,90,74,46,29.99,29.89,8,2,12,0.00
2013-8-7,96,87,81,79,77,73,89,73,50,29.97,29.87,8,3,10,0.00
2013-8-8,96,86,78,80,78,75,90,76,56,29.94,29.87,8,2,12,0.65
2013-8-9,92,84,79,79,77,75,88,79,61,30.00,29.89,11,1,19,0.02
2013-8-10,94,86,80,79,76,72,91,74,49,30.05,29.98,9,2,15,0.05
2013-8-11,91,83,80,78,76,72,87,78,57,30.09,30.03,8,2,20,0.00
2013-8-12,92,84,80,80,77,74,93,80,61,30.09,30.01,7,1,13,0.00
2013-8-13,91,81,73,80,76,70,95,86,67,30.06,29.92,15,2,19,0.77
2013-8-14,81,76,75,78,74,73,96,93,88,29.98,29.90,9,1,18,0.64
2013-8-15,89,81,74,77,75,72,97,81,59,29.96,29.89,11,2,12,0.00
2013-8-16,90,82,78,78,75,72,90,80,61,29.95,29.89,7,1,13,0.12
2013-8-17,84,79,76,76,74,72,94,85,68,29.95,29.89,8,2,14,0.04
2013-8-18,83,78,75,75,74,72,93,85,75,29.98,29.88,16,4,18,0.00
2013-8-19,87,78,73,77,74,72,94,87,69,30.02,29.96,7,1,15,0.24
2013-8-20,91,81,75,78,75,73,97,83,63,30.04,29.96,5,1,12,0.01
2013-8-21,89,82,78,79,77,75,94,84,68,30.09,30.00,11,1,13,0.22
2013-8-22,92,84,76,78,75,72,91,75,56,30.07,29.94,10,2,13,0.00
2013-8-23,87,82,78,77,75,72,92,80,69,29.98,29.91,10,3,18,0.00
2013-8-24,81,78,75,76,74,73,96,88,80,30.07,29.94,8,2,13,0.55
2013-8-25,84,78,75,76,75,73,95,89,75,30.14,30.04,7,2,13,0.31
2013-8-26,87,80,75,78,75,73,95,85,70,30.16,30.07,9,1,17,0.02
2013-8-27,89,82,75,75,70,64,90,69,47,30.10,30.02,9,2,13,0.00
2013-8-28,88,80,72,72,67,62,94,67,44,30.07,29.99,6,2,11,0.00
2013-8-29,91,82,72,73,69,63,92,68,44,30.06,29.97,7,2,10,0.00
2013-8-30,93,83,75,76,72,69,90,71,49,30.03,29.92,8,2,12,0.00
2013-8-31,92,84,77,77,75,72,91,75,52,29.98,29.85,7,2,10,0.00
2013-9-1,93,85,78,78,76,72,89,75,55,29.94,29.85,10,2,17,0.00
2013-9-2,94,85,78,78,76,71,90,75,50,29.97,29.85,7,2,16,0.55
2013-9-3,93,83,78,79,76,74,92,80,54,29.97,29.85,9,1,20,0.19
2013-9-4,92,84,77,77,76,73,93,77,57,30.04,29.93,7,1,11,0.00
2013-9-5,91,85,78,77,76,72,91,75,58,30.08,30.01,10,2,12,0.00
2013-9-6,93,84,78,79,75,72,92,76,57,30.09,29.97,8,1,11,0.00
2013-9-7,93,83,78,78,75,70,93,78,53,30.03,29.95,7,1,13,0.00
2013-9-8,92,82,76,77,74,72,92,77,53,29.99,29.92,5,1,17,0.01
2013-9-9,92,83,75,77,73,70,92,74,50,30.02,29.93,7,1,14,0.01
2013-9-10,89,83,77,78,75,72,89,77,62,30.09,29.99,10,2,15,0.00
2013-9-11,92,84,78,77,73,69,87,72,48,30.09,30.00,14,3,16,0.00
2013-9-12,93,84,78,76,74,70,88,71,49,30.02,29.90,9,2,13,0.00
2013-9-13,94,84,77,77,74,67,91,72,43,29.92,29.80,8,2,11,0.00
2013-9-14,89,81,75,77,75,71,96,82,65,29.95,29.84,7,1,14,1.90
2013-9-15,92,83,77,78,75,74,91,77,59,30.03,29.93,9,1,13,0.00
2013-9-16,91,84,77,78,76,74,91,78,64,30.05,29.98,9,2,13,0.00
2013-9-17,92,84,79,77,75,73,90,75,59,30.05,29.94,9,2,15,0.00
2013-9-18,89,82,80,79,76,73,90,81,64,30.02,29.95,10,2,18,0.18
2013-9-19,89,80,76,79,76,74,95,87,71,30.02,29.94,9,2,19,0.65
2013-9-20,90,83,79,78,77,74,93,81,61,29.97,29.79,10,4,18,0.00
2013-9-21,82,77,73,78,75,72,97,92,85,29.80,29.68,8,2,26,2.23
2013-9-22,81,75,71,72,69,64,97,81,67,29.79,29.70,8,3,16,0.06
2013-9-23,88,80,72,78,72,64,91,78,65,29.82,29.76,9,2,15,0.00
2013-9-24,91,83,79,81,78,75,96,85,69,29.83,29.72,10,2,15,0.05
2013-9-25,91,82,75,75,70,61,92,69,37,29.83,29.75,7,2,12,0.00
2013-9-26,87,80,71,70,66,62,87,65,45,29.92,29.80,9,2,13,0.00
2013-9-27,90,80,71,74,70,68,92,74,54,29.99,29.89,8,2,13,0.00
2013-9-28,87,79,72,72,69,67,90,73,55,30.04,29.96,8,1,11,0.00
2013-9-29,86,78,70,72,70,67,92,75,53,30.02,29.92,5,1,10,0.00
2013-9-30,82,78,75,75,73,72,92,85,77,29.94,29.89,8,2,12,0.06
2013-10-1,85,78,75,76,74,71,94,85,64,30.00,29.93,6,1,11,0.04
2013-10-2,86,78,74,77,75,71,95,88,72,30.02,29.94,6,1,11,0.09
2013-10-3,90,80,75,77,75,73,96,84,60,30.00,29.91,10,2,17,0.02
2013-10-4,88,80,74,76,74,71,94,83,65,30.01,29.93,13,2,26,0.22
2013-10-5,87,80,76,76,75,72,94,86,64,29.97,29.87,12,3,24,0.33
2013-10-6,87,77,69,77,71,56,98,83,61,29.93,29.80,15,5,22,0.24
2013-10-7,76,70,65,57,55,51,73,59,46,30.02,29.92,15,6,20,0.00
2013-10-8,76,69,62,60,57,54,82,66,50,30.03,29.96,9,3,13,0.00
2013-10-9,83,72,61,69,63,58,91,73,50,30.07,29.98,7,1,11,0.00
2013-10-10,84,76,68,73,70,66,95,83,67,30.08,29.98,7,1,10,0.00
2013-10-11,86,76,71,74,71,69,97,85,63,30.02,29.95,9,2,11,0.05
2013-10-12,87,78,73,74,72,71,95,82,60,30.07,29.97,8,2,11,0.13
2013-10-13,88,80,73,74,71,68,95,75,53,30.14,30.03,3,0,7,0.00
2013-10-14,86,78,72,72,68,60,93,72,43,30.09,29.99,5,1,12,0.00
2013-10-15,86,77,70,72,69,67,95,78,54,30.02,29.93,6,1,10,0.00
2013-10-16,85,78,73,74,71,69,91,82,61,29.98,29.90,8,2,11,0.00
2013-10-17,78,75,67,74,70,63,94,85,74,29.98,29.89,10,4,17,0.00
2013-10-18,74,69,66,63,62,60,86,77,65,30.02,29.91,9,3,14,0.00
2013-10-19,71,67,62,66,63,60,96,87,72,29.99,29.87,12,2,19,0.78
2013-10-20,74,66,58,61,58,55,90,77,60,30.07,29.96,11,2,13,0.00
2013-10-21,75,69,63,66,63,59,89,83,74,30.04,29.94,6,1,12,0.00
2013-10-22,79,72,66,66,63,57,91,75,52,29.98,29.90,13,3,16,0.00
2013-10-23,75,68,62,58,53,47,80,61,39,30.12,29.97,11,3,15,0.00
2013-10-24,81,68,56,60,52,46,86,60,32,30.21,30.10,6,0,7,0.00
2013-10-25,69,63,57,60,50,43,91,64,44,30.36,30.20,10,3,18,0.00
2013-10-26,77,64,53,59,52,43,89,68,45,30.28,30.14,6,1,11,0.00
2013-10-27,76,67,57,64,61,56,97,81,62,30.14,30.03,7,1,11,0.01
2013-10-28,82,72,65,68,65,63,96,80,60,30.17,30.05,7,2,11,0.00
2013-10-29,81,72,64,69,66,63,96,80,55,30.20,30.13,9,2,14,0.01
2013-10-30,81,75,70,71,69,67,94,83,65,30.16,30.02,12,3,17,0.00
2013-10-31,82,76,69,73,71,68,96,84,71,30.02,29.81,12,6,20,0.24
2013-11-1,77,70,62,70,61,54,96,76,46,29.92,29.79,13,3,15,0.06
2013-11-2,73,66,58,58,53,45,90,65,43,30.14,29.91,11,4,20,0.00
2013-11-3,67,60,52,49,46,43,77,63,42,30.22,30.11,12,3,18,0.00
2013-11-4,72,65,56,64,58,49,86,78,64,30.22,30.11,11,2,16,0.00
2013-11-5,76,70,67,67,65,61,89,84,73,30.18,30.08,11,3,19,0.00
2013-11-6,79,72,67,73,69,64,97,90,78,30.10,30.01,7,2,13,0.09
2013-11-7,70,61,54,69,54,43,97,78,53,30.28,30.05,17,8,24,0.04
2013-11-8,64,57,50,43,39,34,69,53,34,30.30,30.16,17,5,23,0.00
2013-11-9,75,63,52,61,54,44,93,74,57,30.21,30.13,5,1,10,0.00
2013-11-10,76,67,61,61,57,52,93,71,54,30.24,30.15,9,2,12,0.00
2013-11-11,77,66,58,58,55,50,87,67,51,30.22,30.11,5,1,9,0.00
2013-11-12,71,60,45,58,51,34,92,74,54,30.44,30.15,15,6,31,0.00
2013-11-13,56,47,38,33,29,24,64,51,36,30.50,30.37,13,6,23,0.00
2013-11-14,62,55,45,58,45,31,89,70,53,30.37,30.09,8,3,14,0.00
2013-11-15,72,65,59,68,62,56,96,91,85,30.07,29.95,6,2,11,0.00
2013-11-16,77,69,61,71,66,60,98,91,79,30.04,29.93,8,2,13,0.00
2013-11-17,81,74,69,75,72,69,98,93,81,29.96,29.87,11,3,16,0.00
2013-11-18,74,67,62,74,60,45,98,80,50,30.07,29.93,12,2,24,0.00
2013-11-19,62,58,52,44,40,35,61,52,40,30.14,30.02,12,5,17,0.00
2013-11-20,72,59,48,61,50,37,94,73,59,30.10,30.00,6,2,11,0.00
2013-11-21,69,65,62,65,63,60,96,92,87,30.17,30.07,7,2,12,0.00
2013-11-22,82,68,64,72,66,62,98,92,71,30.19,30.11,11,2,15,0.00
2013-11-23,66,60,51,65,58,43,98,92,75,30.29,30.13,16,5,26,0.00
2013-11-24,55,49,45,42,33,29,73,55,39,30.36,30.25,18,7,24,0.00
2013-11-25,62,53,44,61,48,29,98,85,55,30.27,29.80,12,3,14,0.00
2013-11-26,58,48,43,58,47,41,98,94,89,30.02,29.73,19,7,27,0.00
2013-11-27,48,43,39,41,32,27,93,66,48,30.39,30.02,20,8,26,0.00
2013-11-28,48,40,34,35,30,27,90,69,48,30.48,30.38,7,2,10,0.00
2013-11-29,58,45,36,38,33,23,92,66,27,30.52,30.42,9,1,13,0.00
2013-11-30,67,53,40,49,43,37,92,73,45,30.42,30.23,6,1,10,0.00
2013-12-1,70,58,49,55,52,47,96,80,56,30.26,29.99,6,1,9,0.00
2013-12-2,72,63,55,63,58,52,95,84,70,29.99,29.77,12,2,17,0.00
2013-12-3,76,70,63,69,66,62,96,90,76,29.81,29.72,17,6,22,0.00
2013-12-4,79,74,70,72,71,68,98,90,75,29.92,29.80,13,4,16,0.00
2013-12-5,79,74,72,75,73,71,98,94,85,30.00,29.91,9,4,16,0.00
2013-12-6,80,68,46,74,65,44,97,92,81,30.18,29.92,17,7,22,0.00
2013-12-7,46,43,42,44,42,41,97,94,91,30.29,30.17,12,5,22,0.00
2013-12-8,53,49,44,53,48,43,99,97,96,30.21,30.00,8,2,11,0.00
2013-12-9,65,57,52,59,55,52,99,93,82,30.12,30.02,8,2,12,0.00
2013-12-10,56,46,41,55,40,36,98,82,65,30.34,30.05,20,7,22,0.00
2013-12-11,55,49,42,48,42,37,84,75,64,30.38,30.29,7,3,10,0.00
2013-12-12,55,50,45,47,36,29,78,58,44,30.48,30.34,11,4,19,0.00
2013-12-13,63,54,42,58,47,30,91,76,57,30.33,29.96,6,2,11,0.00
2013-12-14,72,64,50,68,61,45,95,90,82,30.07,29.83,13,4,22,0.00
2013-12-15,50,47,42,46,39,36,85,75,65,30.30,30.07,19,6,24,0.00
2013-12-16,61,47,37,41,37,33,92,71,40,30.34,30.24,6,1,7,0.00
2013-12-17,65,51,42,45,40,31,94,71,29,30.34,30.23,6,1,8,0.00
2013-12-18,68,54,42,48,45,40,92,74,46,30.35,30.20,7,1,9,0.00
2013-12-19,72,63,51,60,57,47,93,81,63,30.19,30.00,13,3,17,0.00
2013-12-20,77,70,65,70,66,60,96,89,79,30.05,29.93,13,4,17,0.00
2013-12-21,78,73,69,72,71,67,97,92,83,29.93,29.75,17,8,28,0.00
2013-12-22,73,58,55,72,57,53,97,95,87,30.14,29.80,10,2,19,0.00
2013-12-23,56,46,40,55,42,35,97,84,74,30.45,30.10,16,7,22,0.00
2013-12-24,51,42,36,35,33,30,86,70,53,30.50,30.37,11,4,21,0.00
2013-12-25,49,44,37,35,32,29,79,64,48,30.39,30.29,7,3,12,0.00
2013-12-26,54,48,43,41,36,31,74,62,49,30.38,30.27,11,3,13,0.00
2013-12-27,60,52,47,41,39,36,75,60,45,30.38,30.26,10,3,15,0.00
2013-12-28,52,49,46,50,47,41,97,93,66,30.28,29.95,8,4,16,0.00
2013-12-29,61,52,48,49,47,43,98,83,54,30.11,29.96,9,2,12,0.00
2013-12-30,59,52,47,49,47,44,93,83,66,30.30,30.08,9,2,14,0.00
2013-12-31,51,46,44,48,42,39,93,87,82,30.39,30.28,11,4,13,0.00
2014-1-1,63,54,45,58,52,43,97,93,84,30.29,30.01,6,1,10,0.00
2014-1-2,58,53,41,57,46,26,98,78,46,30.35,29.94,17,6,25,0.00